Terminal Aerodrome Forecast
Issued by NWS Pittsburgh, PA

Home | Current Version | Previous Version | Text Only | Print | Product List | Glossary On
Versions: 1 2 3 4 5 6 7 8 9 10 11 12 13 14 15 16 17 18 19 20 21 22 23 24 25 26 27 28 29 30
705
FTUS41 KPBZ 170258 AAC
TAFPIT
TAF AMD
KPIT 170258Z 1703/1806 12003KT P6SM BKN050
      TEMPO 1703/1707 BKN015
     FM170800 13003KT 2SM -RA OVC006
     FM171500 17007KT 3SM -SHRA OVC008
     FM171800 19009KT 5SM -SHRA OVC010
     FM180000 23008KT P6SM OVC015=

USA.gov is the U.S. government's official web portal to all federal, state and local government web resources and services.